Henning, Illinois
Current Conditions -  °F | °C
As of 9:55 AM on Friday 24 Oct 2014 (Local Time) from KDNV Reporting Station
Overcast Overcast  
Wind Chill: 53°   Ceiling: 2200
Heat Index: 53°   Visibility: 10mi
Dew Point: 49°   Wind: 7mph
Humidity: 85%   Direction: 220°SW
Pressure: 30.08"   Gusts: NA
Location:  40.31°N, 87.7°W
Report Text: KDNV 241455Z AUTO 22006KT 10SM OVC022 12/09 A3008 RMK AO2 T01170092
Loading
Personal Weather Stations






























Interactive Weather Map
Tropical Storm Tracking
New forecast layout! Learn more

10-Day Weather Forecast

Advertisements
Track Severe Weather on mobile